Friday, January 19, 2018, 10:38 AM EST
Back to Local

KJYO, Leesburg / Godfrey

Location: Leesburg, VA, United States Lat: 39.083
Local Time: 10:38 AM EST (15:38 GMT) Lon: -77.567
Time Zone: US/Eastern Elev: 390 ft

Show me the last for .
Show Decoded

2018-01-19 10:15 METAR KJYO 191515Z AUTO 29005KT 10SM CLR 06/M08 A3014 RMK AO2 =
2018-01-19 09:55 METAR KJYO 191455Z AUTO 00000KT 10SM CLR 05/M08 A3014 RMK AO2 =
2018-01-19 09:35 METAR KJYO 191435Z AUTO 00000KT 10SM CLR 05/M08 A3014 RMK AO2 =
2018-01-19 09:15 METAR KJYO 191415Z AUTO 19003KT 10SM CLR 03/M09 A3014 RMK AO2 =
2018-01-19 08:55 METAR KJYO 191355Z AUTO 19004KT 10SM CLR 02/M08 A3013 RMK AO2 =
2018-01-19 08:35 METAR KJYO 191335Z AUTO 20005KT 10SM CLR 01/M08 A3013 RMK AO2 =
2018-01-19 08:15 METAR KJYO 191315Z AUTO 20004KT 10SM CLR 02/M07 A3012 RMK AO2 =
2018-01-19 07:55 METAR KJYO 191255Z AUTO 31008KT 10SM CLR 00/M07 A3013 RMK AO2 =
2018-01-19 07:35 METAR KJYO 191235Z AUTO 31006KT 10SM CLR 00/M08 A3013 RMK AO2 =
2018-01-19 07:15 METAR KJYO 191215Z AUTO 31007KT 10SM CLR 00/M08 A3013 RMK AO2 =
2018-01-19 06:55 METAR KJYO 191155Z AUTO 33010KT 10SM CLR M02/M08 A3013 RMK AO2 =
2018-01-19 06:35 METAR KJYO 191135Z AUTO 33006KT 10SM CLR M02/M08 A3013 RMK AO2 =
2018-01-19 06:15 METAR KJYO 191115Z AUTO 32004KT 10SM CLR M05/M08 A3012 RMK AO2 =
2018-01-19 05:55 METAR KJYO 191055Z AUTO 00000KT 10SM CLR M04/M08 A3011 RMK AO2 =
2018-01-19 05:35 METAR KJYO 191035Z AUTO 00000KT 10SM CLR M03/M08 A3011 RMK AO2 =
2018-01-19 05:15 METAR KJYO 191015Z AUTO 07005KT 10SM CLR M01/M09 A3010 RMK AO2 =
2018-01-19 04:55 METAR KJYO 190955Z AUTO 29004KT 10SM CLR M01/M10 A3010 RMK AO2 =
2018-01-19 04:35 METAR KJYO 190935Z AUTO 28004KT 10SM CLR M03/M09 A3009 RMK AO2 =
2018-01-19 04:15 METAR KJYO 190915Z AUTO 28004KT 10SM CLR M03/M09 A3009 RMK AO2 =
2018-01-19 03:55 METAR KJYO 190855Z AUTO 29003KT 10SM VCTS CLR M02/M10 A3009 RMK AO2 =
2018-01-19 03:35 METAR KJYO 190835Z AUTO 27003KT 10SM CLR M03/M09 A3009 RMK AO2 =
2018-01-19 03:15 METAR KJYO 190815Z AUTO 00000KT 10SM CLR M01/M11 A3009 RMK AO2 =
2018-01-19 02:55 METAR KJYO 190755Z AUTO 27003KT 10SM CLR M01/M11 A3010 RMK AO2 =
2018-01-19 02:35 METAR KJYO 190735Z AUTO 00000KT 10SM CLR M01/M10 A3010 RMK AO2 =
2018-01-19 02:15 METAR KJYO 190715Z AUTO 21003KT 10SM CLR 00/M11 A3010 RMK AO2 =
2018-01-19 01:55 METAR KJYO 190655Z AUTO 20006KT 10SM CLR 00/M11 A3010 RMK AO2 =
2018-01-19 01:35 METAR KJYO 190635Z AUTO 19005KT 10SM CLR 00/M12 A3010 RMK AO2 =
2018-01-19 01:15 METAR KJYO 190615Z AUTO 20006KT 10SM CLR M01/M11 A3011 RMK AO2 =
2018-01-19 00:55 METAR KJYO 190555Z AUTO 21004KT 10SM CLR 00/M11 A3011 RMK AO2 =
2018-01-19 00:35 METAR KJYO 190535Z AUTO 21005KT 10SM CLR 01/M11 A3011 RMK AO2 =
2018-01-19 00:15 METAR KJYO 190515Z AUTO 18005KT 10SM CLR 01/M11 A3011 RMK AO2 =
2018-01-18 23:55 METAR KJYO 190455Z AUTO 29006KT 10SM CLR 00/M11 A3012 RMK AO2 =
2018-01-18 23:35 METAR KJYO 190435Z AUTO 32007KT 10SM CLR 01/M11 A3012 RMK AO2 =
2018-01-18 23:15 METAR KJYO 190415Z AUTO 29004KT 10SM CLR 02/M11 A3012 RMK AO2 =
2018-01-18 22:55 METAR KJYO 190355Z AUTO 30005KT 10SM CLR 01/M11 A3012 RMK AO2 =
2018-01-18 22:35 METAR KJYO 190335Z AUTO 33006KT 10SM CLR 03/M12 A3011 RMK AO2 =
2018-01-18 22:15 METAR KJYO 190315Z AUTO 33009G15KT 10SM CLR 03/M12 A3011 RMK AO2 =
2018-01-18 21:55 METAR KJYO 190255Z AUTO 01005KT 10SM CLR 04/M12 A3012 RMK AO2 =
2018-01-18 21:35 METAR KJYO 190235Z AUTO 01004KT 10SM CLR 04/M12 A3012 RMK AO2 =
2018-01-18 21:15 METAR KJYO 190215Z AUTO 35008KT 10SM CLR 04/M12 A3012 RMK AO2 =
2018-01-18 20:55 METAR KJYO 190155Z AUTO 00000KT 10SM CLR 04/M13 A3011 RMK AO2 =
2018-01-18 20:35 METAR KJYO 190135Z AUTO 34007KT 10SM CLR 04/M13 A3010 RMK AO2 =
2018-01-18 20:15 METAR KJYO 190115Z AUTO 32007KT 10SM CLR 04/M13 A3009 RMK AO2 =
2018-01-18 19:55 METAR KJYO 190055Z AUTO 32009G17KT 10SM CLR 04/M13 A3009 RMK AO2 =
2018-01-18 19:35 METAR KJYO 190035Z AUTO 33009KT 10SM CLR 04/M13 A3010 RMK AO2 =
2018-01-18 19:15 METAR KJYO 190015Z AUTO 32012G15KT 10SM CLR 04/M13 A3009 RMK AO2 =
2018-01-18 18:55 METAR KJYO 182355Z AUTO 31012G16KT 10SM CLR 05/M13 A3009 RMK AO2 =
2018-01-18 18:35 METAR KJYO 182335Z AUTO 34005KT 10SM CLR 05/M14 A3008 RMK AO2 =
2018-01-18 18:15 METAR KJYO 182315Z AUTO 36003KT 10SM CLR 05/M14 A3008 RMK AO2 =
2018-01-18 17:55 METAR KJYO 182255Z AUTO 36004KT 10SM CLR 05/M14 A3007 RMK AO2 =
2018-01-18 17:35 METAR KJYO 182235Z AUTO 35005G15KT 10SM CLR 06/M13 A3006 RMK AO2 =
2018-01-18 17:15 METAR KJYO 182215Z AUTO 33009KT 10SM CLR 06/M13 A3005 RMK AO2 =
2018-01-18 16:55 METAR KJYO 182155Z AUTO 31010G19KT 10SM CLR 06/M13 A3004 RMK AO2 =
2018-01-18 16:35 METAR KJYO 182135Z AUTO 31013G17KT 10SM CLR 07/M13 A3004 RMK AO2 =
2018-01-18 16:15 METAR KJYO 182115Z AUTO 31012KT 10SM CLR 07/M12 A3004 RMK AO2 =
2018-01-18 15:55 METAR KJYO 182055Z AUTO 29011G15KT 10SM CLR 07/M12 A3003 RMK AO2 =
2018-01-18 15:35 METAR KJYO 182035Z AUTO 30008G15KT 10SM CLR 07/M12 A3003 RMK AO2 =
2018-01-18 15:15 METAR KJYO 182015Z AUTO 33012G19KT 10SM CLR 07/M12 A3003 RMK AO2 =
2018-01-18 14:55 METAR KJYO 181955Z AUTO 30009G19KT 10SM CLR 07/M12 A3004 RMK AO2 =
2018-01-18 14:35 METAR KJYO 181935Z AUTO 31012G19KT 10SM CLR 07/M12 A3004 RMK AO2 =
2018-01-18 14:15 METAR KJYO 181915Z AUTO 29010G21KT 10SM CLR 07/M12 A3005 RMK AO2 =
2018-01-18 13:55 METAR KJYO 181855Z AUTO 32013G19KT 10SM CLR 07/M12 A3006 RMK AO2 =
2018-01-18 13:35 METAR KJYO 181835Z AUTO 32014G19KT 10SM CLR 07/M11 A3006 RMK AO2 =
2018-01-18 13:15 METAR KJYO 181815Z AUTO 29016G21KT 10SM CLR 06/M11 A3008 RMK AO2 =
2018-01-18 12:55 METAR KJYO 181755Z AUTO 31016G22KT 10SM CLR 06/M12 A3008 RMK AO2 =
2018-01-18 12:35 METAR KJYO 181735Z AUTO 31014G23KT 10SM CLR 05/M11 A3009 RMK AO2 =
2018-01-18 12:15 METAR KJYO 181715Z AUTO 30016G24KT 10SM CLR 05/M12 A3011 RMK AO2 =
2018-01-18 11:55 METAR KJYO 181655Z AUTO 30019G24KT 10SM CLR 03/M12 A3012 RMK AO2 =
2018-01-18 11:35 METAR KJYO 181635Z AUTO 30019G24KT 270V330 10SM CLR 03/M12 A3014 RMK AO2 =
2018-01-18 11:15 METAR KJYO 181615Z AUTO 29004G19KT 10SM CLR 02/M12 A3016 RMK AO2 =
2018-01-18 10:55 METAR KJYO 181555Z AUTO 30018G24KT 10SM CLR 01/M12 A3017 RMK AO2 =

Support USWX by starting your Amazon purchase here.